Kezdőlap
METAR-TAF:

METAR-TAF

Repülőterek :

Auckland, Új-Zéland

földrajzi szélesség: 37-01S, földrajzi hosszúság: 174-48E, magasság: 7 m

Jelenlegi meteorológiai megfigyelések

A jelentés 28 perccel ezelõtt készült, 10:00 UTC
Keleti szél 2 kt
Hőmérséklet 19°C
Páratartalom 83%
Légköri nyomás 1022 hPa
Látótávolság 10 km, vagy több

METAR: NZAA 231000Z AUTO 09002KT 9999 NCD 19/16 Q1022

Idő: 23:28 (10:28 UTC)

Előrejelzés

A jelentés 2 órával és 27 perccel ezelõtt készült, 08:01 UTC
Az előrejelzés 23-én 09 óra UTC és 24-én 12 óra UTC között érvényes
Délnyugati szél 10 kt
Látótávolság 10 km, vagy több
Kevés felhő 4000 lábon
23-én 1000 órától UTC szerint
Különbözõ irányokból fújó szél 2 kt
Látótávolság 10 km, vagy több
Kevés felhő 3000 lábon
23-én 22 óra UTC és 24-én 00 óra UTC között fokozatosan kialakuló
Nyugat-északnyugati szél 10 kt

TAF: NZAA 230801Z 2309/2412 23010KT 9999 FEW040 FM231000 VRB02KT 9999 FEW030 BECMG 2322/2400 30010KT

Meteorológiai megfigyelések és előrejelzések több, mint 4000 repülőtéren (METAR és TAF jelentéseket).

A térképen piros és sárga pontok jelzik az elérhető meteorológiai állomásokat.

Mozgassa az egeret a pont fölött, hogy megjelenjen az állomás neve.

Azután kattintson az időjárási megfigyelések és előrejelzések megtekintéséhez.

A térkép megváltoztatása: kattintson a fekete keresztel jelölt zöld gombra ráközelítéshez, a vonallal jelölt zöld gombra távolításhoz, vagy a zöld nyilakra a szomszédos térképek eléréséhez.


METAR-TAF: